• Join FlightAware (Why Join?)
  • Login
  • US Flag 
04:02PM EST


 

Airport Tracker/Info


-or-


 

Live Flight TrackerFlight Track Log ✈ EJM826 ✈ 29-Jul-2013 ✈ KSAT - KBJC

Flight Track Log - Related Links

Times and Time Zones

All times are in EDT time to prevent confusion due to time zone crossing. See the EJM826 flight status page for this flight to view local times or setup timezone preferences in your user account.

Time Position Orientation Groundspeed Altitude Reporting Facility
EDT Latitude Longitude Course Direction KTS MPH feet Rate Location/Type
08:51AM 29.4922 -98.3906 117° Southeast 218 251 4,200  Level Houston Center
08:52AM 29.5528 -98.3606 23° Northeast 247 284 6,500 1,860 Climbing Houston Center
08:53AM 29.6356 -98.3672 356° North 284 327 8,100 1,800 Climbing Houston Center
08:54AM 29.7217 -98.3711 358° North 309 356 10,200 2,040 Climbing Houston Center
08:55AM 29.8089 -98.3989 345° North 309 356 12,300 1,980 Climbing Houston Center
08:56AM 29.8892 -98.4425 335° Northwest 309 356 14,400 1,800 Climbing Houston Center
08:57AM 29.9736 -98.4872 335° Northwest 302 348 16,100 1,500 Climbing Houston Center
08:58AM 30.0556 -98.5303 336° Northwest 323 372 17,600 1,260 Climbing Houston Center
08:59AM 30.1414 -98.5764 335° Northwest 337 388 18,800 1,260 Climbing Houston Center
09:00AM 30.2356 -98.6275 335° Northwest 346 398 20,300 1,260 Climbing Houston Center
09:01AM 30.3189 -98.6725 335° Northwest 353 406 21,500 1,080 Climbing Houston Center
09:02AM 30.4119 -98.7214 336° Northwest 362 417 22,600 1,080 Climbing Houston Center
09:03AM 30.5058 -98.7728 335° Northwest 367 422 23,800 1,200 Climbing Houston Center
09:04AM 30.6019 -98.8244 335° Northwest 374 430 25,100 1,140 Climbing Houston Center
09:05AM 30.7131 -98.8842 335° Northwest 375 432 26,200 900 Climbing Houston Center
09:07AM 30.8111 -98.9381 335° Northwest 380 437 27,000 840 Climbing Houston Center
09:08AM 30.9094 -98.9917 335° Northwest 383 441 28,000 840 Climbing Houston Center
09:09AM 31.0100 -99.0467 335° Northwest 391 450 28,800 720 Climbing Houston Center
09:10AM 31.1111 -99.1017 335° Northwest 394 453 29,600 780 Climbing Houston Center
09:11AM 31.2119 -99.1575 335° Northwest 395 455 30,500 720 Climbing Houston Center
09:12AM 31.3208 -99.2161 335° Northwest 399 459 31,200 720 Climbing Houston Center
09:13AM 31.4186 -99.2706 335° Northwest 405 466 32,000 900 Climbing Houston Center
09:14AM 31.5389 -99.3375 335° Northwest 405 466 33,100 960 Climbing Houston Center
09:15AM 31.6278 -99.3894 334° Northwest 398 458 34,000 1,020 Climbing Fort Worth Center
09:16AM 31.7292 -99.4431 336° Northwest 403 464 35,100 900 Climbing Fort Worth Center
09:17AM 31.8286 -99.4992 334° Northwest 403 464 35,900 900 Climbing Fort Worth Center
09:18AM 31.9278 -99.5553 334° Northwest 403 464 36,900 900 Climbing Fort Worth Center
09:19AM 32.0269 -99.6089 335° Northwest 398 458 37,800 1,020 Climbing Fort Worth Center
09:20AM 32.1222 -99.6628 334° Northwest 398 458 39,000 960 Climbing Fort Worth Center
09:21AM 32.2172 -99.7167 334° Northwest 386 444 39,800 480 Climbing Fort Worth Center
09:22AM 32.3144 -99.7708 335° Northwest 381 438 40,000 60 Climbing Fort Worth Center
09:23AM 32.4133 -99.8275 334° Northwest 386 444 40,000  Level Fort Worth Center
09:24AM 32.5144 -99.8894 333° Northwest 392 451 40,000  Level Fort Worth Center
09:25AM 32.6136 -99.9511 332° Northwest 411 473 40,000  Level Fort Worth Center
09:26AM 32.7208 -100.0161 333° Northwest 451 519 40,000  Level Fort Worth Center
09:27AM 32.8297 -100.0908 330° Northwest 441 507 40,000  Level Fort Worth Center
09:28AM 32.9347 -100.1558 333° Northwest 428 493 40,000  Level Fort Worth Center
09:29AM 33.0356 -100.2233 331° Northwest 423 487 40,000  Level Fort Worth Center
09:30AM 33.1425 -100.2914 332° Northwest 423 487 40,000  Level Fort Worth Center
09:31AM 33.2433 -100.3592 331° Northwest 423 487 40,000  Level Fort Worth Center
09:32AM 33.3503 -100.4275 332° Northwest 423 487 40,000  Level Fort Worth Center
09:33AM 33.4528 -100.4956 331° Northwest 423 487 40,000  Level Fort Worth Center
09:34AM 33.5597 -100.5667 331° Northwest 428 493 40,000  Level Fort Worth Center
09:35AM 33.6644 -100.6353 331° Northwest 428 493 40,000  Level Fort Worth Center
09:36AM 33.7814 -100.7097 332° Northwest 428 493 40,000  Level Fort Worth Center
09:37AM 33.8736 -100.7731 330° Northwest 428 493 40,000  Level Fort Worth Center
09:38AM 33.9803 -100.8425 332° Northwest 428 493 40,000  Level Fort Worth Center
09:40AM 34.1894 -100.9814 331° Northwest 431 496 40,000  Level Albuquerque Center
09:41AM 34.2942 -101.0528 331° Northwest 432 497 40,000  Level Albuquerque Center
09:42AM 34.3986 -101.1219 331° Northwest 431 496 40,000  Level Albuquerque Center
09:43AM 34.5231 -101.2100 330° Northwest 430 495 40,000  Level Albuquerque Center
09:44AM 34.6269 -101.2797 331° Northwest 429 494 40,000  Level Albuquerque Center
09:45AM 34.7317 -101.3508 331° Northwest 430 495 40,000  Level Albuquerque Center
09:46AM 34.8339 -101.4208 331° Northwest 425 489 40,000  Level Albuquerque Center
09:47AM 34.9375 -101.4914 331° Northwest 425 489 40,000  Level Albuquerque Center
09:48AM 35.0475 -101.5683 330° Northwest 431 496 40,000  Level Albuquerque Center
09:49AM 35.1539 -101.6406 331° Northwest 434 499 40,000  Level Albuquerque Center
09:50AM 35.2583 -101.7156 330° Northwest 434 499 40,000  Level Albuquerque Center
09:51AM 35.3519 -101.8039 322° Northwest 425 489 40,000  Level Albuquerque Center
09:52AM 35.4472 -101.8914 323° Northwest 424 488 40,000  Level Albuquerque Center
09:53AM 35.5436 -101.9792 323° Northwest 426 490 40,000  Level Albuquerque Center
09:54AM 35.6381 -102.0661 323° Northwest 425 489 40,000  Level Albuquerque Center
09:55AM 35.7319 -102.1531 323° Northwest 423 487 40,000  Level Albuquerque Center
09:56AM 35.8253 -102.2406 323° Northwest 423 487 40,000  Level Albuquerque Center
09:57AM 35.9378 -102.3444 323° Northwest 422 486 40,000  Level Albuquerque Center
09:58AM 36.0317 -102.4314 323° Northwest 422 486 40,000  Level Albuquerque Center
09:59AM 36.1258 -102.5208 323° Northwest 425 489 40,000  Level Albuquerque Center
10:00AM 36.2197 -102.6081 323° Northwest 424 488 40,000  Level Albuquerque Center
10:01AM 36.3131 -102.6956 323° Northwest 422 486 40,000  Level Albuquerque Center
10:02AM 36.4075 -102.7833 323° Northwest 422 486 40,000  Level Albuquerque Center
10:03AM 36.5042 -102.8761 322° Northwest 421 484 40,000  Level Albuquerque Center
10:04AM 36.5975 -102.9642 323° Northwest 419 482 40,000  Level Albuquerque Center
10:05AM 36.7019 -103.0625 323° Northwest 418 481 40,000  Level Albuquerque Center
10:06AM 36.7900 -103.1486 322° Northwest 419 482 40,000  Level Albuquerque Center
10:07AM 36.8778 -103.2333 322° Northwest 418 481 40,000  Level Albuquerque Center
10:08AM 36.9814 -103.3314 323° Northwest 418 481 40,000  Level Albuquerque Center
10:09AM 37.0731 -103.4100 326° Northwest 418 481 40,000  Level Albuquerque Center
10:10AM 37.2047 -103.4467 347° North 435 501 40,000  Level Albuquerque Center
10:11AM 37.3172 -103.4797 347° North 437 503 40,000  Level Albuquerque Center
10:12AM 37.4069 -103.5597 325° Northwest 417 480 40,000 -540 Level Albuquerque Center
10:13AM 37.5097 -103.6575 323° Northwest 415 478 38,900 -1,500 Descending Albuquerque Center
10:14AM 37.5972 -103.7431 322° Northwest 419 482 37,000 -2,100 Descending Albuquerque Center
10:16AM 37.7494 -103.8900 323° Northwest 439 505 33,800 -1,620 Descending Denver Center
10:17AM 37.8406 -103.9794 322° Northwest 438 504 33,000 -420 Descending Denver Center
10:18AM 37.9469 -104.0844 322° Northwest 436 502 33,000  Level Denver Center
10:19AM 38.0389 -104.1747 322° Northwest 439 505 33,000 -660 Level Denver Center
10:20AM 38.1644 -104.2994 322° Northwest 450 518 31,600 -1,500 Descending Denver Center
10:21AM 38.2578 -104.3919 322° Northwest 445 512 29,700 -2,520 Descending Denver Center
10:22AM 38.3828 -104.4553 338° Northwest 444 511 26,500 -3,000 Descending Denver Center
10:23AM 38.4944 -104.4906 346° North 433 498 23,600 -3,060 Descending Denver Center
10:24AM 38.6217 -104.5297 346° North 424 488 20,200 -2,880 Descending Denver Center
10:25AM 38.7256 -104.5636 346° North 408 470 17,700 -2,040 Descending Denver Center
10:26AM 38.8211 -104.5947 346° North 377 434 16,000 -1,980 Descending Denver Center
10:27AM 38.9253 -104.6269 346° North 349 402 13,700 -1,740 Descending Denver Center
10:28AM 39.0117 -104.6319 357° North 308 354 12,500 -900 Descending Denver Center
10:30AM 39.0931 -104.6308 North 286 329 11,900 -300 Descending Denver Center
10:31AM 39.1797 -104.6308 360° North 277 319 11,900  Level Denver Center
10:32AM 39.2158 -104.6994 304° West 241 277 11,900  Level Denver Center
10:33AM 39.2433 -104.7911 291° West 253 291 11,900 -300 Level Denver Center
10:34AM 39.2672 -104.8719 291° West 244 281 11,300 -480 Descending Denver Center
10:35AM 39.3167 -104.9264 320° Northwest 244 281 11,000 -180 Descending Denver Center
10:36AM 39.3861 -104.9561 342° North 245 282 11,000  Level Denver Center
10:37AM 39.4550 -104.9564 360° North 248 285 11,000  Level Denver Center
10:38AM 39.5258 -104.9539 North 237 273 11,000  Level Denver Center
10:39AM 39.5928 -104.9531 North 240 276 11,000  Level Denver Center
10:40AM 39.6583 -104.9514 North 235 270 11,000  Level Denver Center
10:41AM 39.7294 -104.9411 North 238 274 11,000  Level Denver Center
10:42AM 39.7961 -104.9328 North 239 275 11,000  Level Denver Center
10:43AM 39.8683 -104.9239 North 241 277 11,000  Level Denver Center
10:44AM 39.9364 -104.9167 North 243 280 11,000  Level Denver Center
10:45AM 40.0044 -104.9106 North 244 281 11,000  Level Denver Center
10:46AM 40.0756 -104.9033 North 238 274 11,000  Level Denver Center
10:47AM 40.1417 -104.8964 North 237 273 11,000  Level Denver Center
10:48AM 40.2117 -104.8878 North 232 267 11,000  Level Denver Center
10:49AM 40.2778 -104.8775 North 238 274 11,000  Level Denver Center
10:50AM 40.3458 -104.8661 North 229 264 11,000  Level Denver Center
10:51AM 40.4106 -104.8533 North 233 268 11,000  Level Denver Center
10:52AM 40.4753 -104.8403 North 234 269 11,000  Level Denver Center
10:53AM 40.5378 -104.8067 22° Northeast 240 276 11,000  Level Denver Center
10:54AM 40.5347 -104.7158 93° East 252 290 11,000  Level Denver Center
10:55AM 40.5300 -104.6164 94° East 255 293 11,000  Level Denver Center
10:56AM 40.5244 -104.5222 94° East 258 297 11,000  Level Denver Center
10:57AM 40.4661 -104.4772 150° Southeast 254 292 11,000  Level Denver Center
10:58AM 40.3953 -104.4764 179° South 255 293 11,000  Level Denver Center
10:59AM 40.3494 -104.5297 222° Southwest 241 277 11,000  Level Denver Center
11:01AM 40.3467 -104.6161 268° West 238 274 11,000  Level Denver Center
11:02AM 40.3436 -104.7036 267° West 242 278 11,000  Level Denver Center
11:03AM 40.3983 -104.7358 336° Northwest 231 266 11,000  Level Denver Center
11:04AM 40.4628 -104.7308 North 234 269 11,000  Level Denver Center
11:05AM 40.5297 -104.7258 North 224 258 11,000  Level Denver Center
11:06AM 40.5936 -104.7206 North 231 266 11,000  Level Denver Center
11:07AM 40.6203 -104.6456 65° Northeast 254 292 11,000  Level Denver Center
11:08AM 40.6164 -104.5533 93° East 253 291 11,000  Level Denver Center
11:09AM 40.6108 -104.4747 95° East 255 293 11,000  Level Denver Center
11:10AM 40.5269 -104.4497 167° South 260 299 11,000  Level Denver Center
11:11AM 40.4547 -104.4483 179° South 259 298 11,000  Level Denver Center
11:12AM 40.3975 -104.4842 205° Southwest 241 277 11,000  Level Denver Center
11:13AM 40.3925 -104.5683 266° West 233 268 11,000 -420 Level Denver Center
11:14AM 40.3700 -104.6472 249° West 241 277 10,200 -1,020 Descending Denver Center
11:15AM 40.3061 -104.6894 207° Southwest 255 293 9,000 -840 Descending Denver Center
11:16AM 40.2419 -104.7300 206° Southwest 239 275 8,500 -840 Descending Denver Center
11:17AM 40.1825 -104.7697 207° Southwest 239 275 7,300 -660 Descending Denver Center
11:18AM 40.1236 -104.8133 210° Southwest 228 262 7,200 -60 Descending Denver Center
11:19AM 40.0661 -104.8556 209° Southwest 236 272 7,200 -120 Level Denver Center
11:20AM 39.9975 -104.8703 189° South 229 264 7,000 -120 Descending Denver Center
11:21AM 39.9364 -104.8719 181° South 222 255 7,000  Level Denver Center
11:22AM 39.8736 -104.8881 191° South 217 250 7,000 -60 Level Denver Center
11:23AM 39.8219 -104.9256 209° Southwest 234 269 6,900  Descending Denver Center
11:24AM 39.8442 -104.9944 293° West 193 222 7,000 -240 Climbing Denver Center
11:25AM 39.8750 -105.0536 304° West 195 224 6,500 -720 Descending Denver Center
11:26AM 39.9019 -105.1022 306° West 155 178 5,600 -900 Descending Denver Center